sensor_id;sensor_type;location;lat;lon;timestamp;pressure;altitude;pressure_sealevel;temperature;humidity
46241;BME280;31961;52.416;-0.732;2023-02-19T19:08:37;101592.36;;;4.38;100.00
46241;BME280;31961;52.416;-0.732;2023-02-19T19:11:04;101598.74;;;5.61;100.00
46241;BME280;31961;52.416;-0.732;2023-02-19T19:13:31;101600.78;;;5.86;100.00
46241;BME280;31961;52.416;-0.732;2023-02-19T19:15:58;101603.75;;;5.28;100.00
46241;BME280;31961;52.416;-0.732;2023-02-19T19:18:26;101610.21;;;5.65;100.00
46241;BME280;31961;52.416;-0.732;2023-02-19T19:20:54;101615.15;;;6.05;100.00
46241;BME280;31961;52.416;-0.732;2023-02-19T19:23:21;101612.79;;;6.29;100.00
46241;BME280;31961;52.416;-0.732;2023-02-19T19:25:49;101605.54;;;5.36;100.00
46241;BME280;31961;52.416;-0.732;2023-02-19T19:28:16;101602.06;;;5.62;100.00
46241;BME280;31961;52.416;-0.732;2023-02-19T19:30:44;101604.94;;;4.56;100.00
46241;BME280;31961;52.416;-0.732;2023-02-19T19:33:11;101603.29;;;4.97;100.00
46241;BME280;31961;52.416;-0.732;2023-02-19T19:35:39;101601.31;;;4.40;100.00
46241;BME280;31961;52.416;-0.732;2023-02-19T19:38:05;101598.65;;;4.33;100.00
46241;BME280;31961;52.416;-0.732;2023-02-19T19:40:33;101603.64;;;4.33;100.00
46241;BME280;31961;52.416;-0.732;2023-02-19T19:43:01;101601.09;;;4.35;100.00
46241;BME280;31961;52.416;-0.732;2023-02-19T19:45:28;101594.91;;;4.40;100.00
46241;BME280;31961;52.416;-0.732;2023-02-19T19:47:56;101599.43;;;4.13;100.00
46241;BME280;31961;52.416;-0.732;2023-02-19T19:50:23;101598.53;;;4.56;100.00
46241;BME280;31961;52.416;-0.732;2023-02-19T19:52:50;101600.65;;;3.87;100.00
46241;BME280;31961;52.416;-0.732;2023-02-19T19:55:18;101593.53;;;4.27;100.00
46241;BME280;31961;52.416;-0.732;2023-02-19T19:57:45;101594.73;;;4.26;100.00
46241;BME280;31961;52.416;-0.732;2023-02-19T20:00:15;101602.88;;;4.19;100.00
46241;BME280;31961;52.416;-0.732;2023-02-19T20:02:43;101599.80;;;4.07;100.00
46241;BME280;31961;52.416;-0.732;2023-02-19T20:05:11;101608.64;;;3.69;100.00
46241;BME280;31961;52.416;-0.732;2023-02-19T20:07:39;101613.77;;;4.33;100.00
46241;BME280;31961;52.416;-0.732;2023-02-19T20:10:07;101612.03;;;3.90;100.00
46241;BME280;31961;52.416;-0.732;2023-02-19T20:12:34;101625.85;;;3.55;100.00
46241;BME280;31961;52.416;-0.732;2023-02-19T20:15:01;101620.72;;;3.88;100.00
46241;BME280;31961;52.416;-0.732;2023-02-19T20:17:29;101619.32;;;3.95;100.00
46241;BME280;31961;52.416;-0.732;2023-02-19T20:19:56;101616.39;;;4.18;100.00
46241;BME280;31961;52.416;-0.732;2023-02-19T20:22:24;101620.52;;;4.38;100.00
46241;BME280;31961;52.416;-0.732;2023-02-19T20:24:52;101623.48;;;4.21;100.00
46241;BME280;31961;52.416;-0.732;2023-02-19T20:27:21;101630.92;;;3.35;100.00
46241;BME280;31961;52.416;-0.732;2023-02-19T20:29:48;101638.08;;;3.16;100.00
46241;BME280;31961;52.416;-0.732;2023-02-19T20:32:16;101627.84;;;3.40;100.00
46241;BME280;31961;52.416;-0.732;2023-02-19T20:34:44;101622.32;;;3.52;100.00
46241;BME280;31961;52.416;-0.732;2023-02-19T20:37:12;101619.37;;;2.90;100.00
46241;BME280;31961;52.416;-0.732;2023-02-19T20:39:39;101632.20;;;3.01;100.00
46241;BME280;31961;52.416;-0.732;2023-02-19T20:42:07;101628.70;;;3.04;100.00
46241;BME280;31961;52.416;-0.732;2023-02-19T20:44:35;101635.53;;;2.89;100.00
46241;BME280;31961;52.416;-0.732;2023-02-19T20:47:02;101627.40;;;3.21;100.00
46241;BME280;31961;52.416;-0.732;2023-02-19T20:49:30;101623.39;;;2.76;100.00
46241;BME280;31961;52.416;-0.732;2023-02-19T20:51:59;101626.69;;;2.98;100.00
46241;BME280;31961;52.416;-0.732;2023-02-19T20:54:28;101629.39;;;3.09;100.00
46241;BME280;31961;52.416;-0.732;2023-02-19T20:56:58;101638.36;;;3.01;100.00
46241;BME280;31961;52.416;-0.732;2023-02-19T20:59:28;101646.89;;;3.03;100.00
46241;BME280;31961;52.416;-0.732;2023-02-19T21:01:56;101640.78;;;2.64;100.00
46241;BME280;31961;52.416;-0.732;2023-02-19T21:04:24;101644.22;;;2.52;100.00
46241;BME280;31961;52.416;-0.732;2023-02-19T21:06:52;101647.80;;;3.03;100.00
46241;BME280;31961;52.416;-0.732;2023-02-19T21:09:20;101645.55;;;3.08;100.00
46241;BME280;31961;52.416;-0.732;2023-02-19T21:11:48;101637.23;;;2.56;100.00
46241;BME280;31961;52.416;-0.732;2023-02-19T21:14:16;101641.45;;;3.11;100.00
46241;BME280;31961;52.416;-0.732;2023-02-19T21:16:44;101639.27;;;2.52;100.00
46241;BME280;31961;52.416;-0.732;2023-02-19T21:19:11;101643.00;;;2.94;100.00
46241;BME280;31961;52.416;-0.732;2023-02-19T21:21:38;101648.37;;;3.02;100.00
46241;BME280;31961;52.416;-0.732;2023-02-19T21:24:08;101639.25;;;2.40;100.00
46241;BME280;31961;52.416;-0.732;2023-02-19T21:26:36;101636.10;;;2.72;100.00
46241;BME280;31961;52.416;-0.732;2023-02-19T21:29:06;101643.31;;;2.58;100.00
46241;BME280;31961;52.416;-0.732;2023-02-19T21:31:36;101640.36;;;2.34;100.00
46241;BME280;31961;52.416;-0.732;2023-02-19T21:34:04;101634.56;;;2.30;100.00
46241;BME280;31961;52.416;-0.732;2023-02-19T21:36:32;101635.63;;;2.63;100.00
46241;BME280;31961;52.416;-0.732;2023-02-19T21:39:00;101640.68;;;2.28;100.00
46241;BME280;31961;52.416;-0.732;2023-02-19T21:41:28;101649.80;;;2.69;100.00
46241;BME280;31961;52.416;-0.732;2023-02-19T21:43:55;101638.32;;;3.01;100.00
46241;BME280;31961;52.416;-0.732;2023-02-19T21:46:24;101636.40;;;2.74;100.00
46241;BME280;31961;52.416;-0.732;2023-02-19T21:48:53;101630.49;;;3.01;100.00
46241;BME280;31961;52.416;-0.732;2023-02-19T21:51:27;101631.46;;;2.84;100.00
46241;BME280;31961;52.416;-0.732;2023-02-19T21:53:55;101631.05;;;2.41;100.00
46241;BME280;31961;52.416;-0.732;2023-02-19T21:56:24;101628.71;;;2.58;100.00
46241;BME280;31961;52.416;-0.732;2023-02-19T21:58:52;101621.64;;;2.47;100.00
46241;BME280;31961;52.416;-0.732;2023-02-19T22:01:20;101621.57;;;2.42;100.00
46241;BME280;31961;52.416;-0.732;2023-02-19T22:03:48;101624.23;;;2.45;100.00
46241;BME280;31961;52.416;-0.732;2023-02-19T22:06:16;101629.37;;;2.43;100.00
46241;BME280;31961;52.416;-0.732;2023-02-19T22:08:44;101629.82;;;2.76;100.00
46241;BME280;31961;52.416;-0.732;2023-02-19T22:11:11;101629.57;;;2.57;100.00
46241;BME280;31961;52.416;-0.732;2023-02-19T22:13:38;101625.61;;;2.21;100.00
46241;BME280;31961;52.416;-0.732;2023-02-19T22:16:06;101632.28;;;2.24;100.00
46241;BME280;31961;52.416;-0.732;2023-02-19T22:18:33;101626.45;;;2.19;100.00
46241;BME280;31961;52.416;-0.732;2023-02-19T22:21:02;101626.46;;;2.47;100.00
46241;BME280;31961;52.416;-0.732;2023-02-19T22:23:29;101625.02;;;2.37;100.00
46241;BME280;31961;52.416;-0.732;2023-02-19T22:25:56;101627.90;;;2.67;100.00
46241;BME280;31961;52.416;-0.732;2023-02-19T22:28:24;101625.98;;;2.56;100.00
46241;BME280;31961;52.416;-0.732;2023-02-19T22:30:51;101618.37;;;2.48;100.00
46241;BME280;31961;52.416;-0.732;2023-02-19T22:33:19;101619.61;;;2.07;100.00
46241;BME280;31961;52.416;-0.732;2023-02-19T22:35:46;101621.96;;;2.14;100.00
46241;BME280;31961;52.416;-0.732;2023-02-19T22:38:14;101622.59;;;2.36;100.00
46241;BME280;31961;52.416;-0.732;2023-02-19T22:40:41;101627.61;;;1.91;100.00
46241;BME280;31961;52.416;-0.732;2023-02-19T22:43:08;101621.21;;;2.36;100.00
46241;BME280;31961;52.416;-0.732;2023-02-19T22:45:36;101615.67;;;1.94;100.00
46241;BME280;31961;52.416;-0.732;2023-02-19T22:48:03;101624.63;;;1.97;100.00
46241;BME280;31961;52.416;-0.732;2023-02-19T22:50:31;101626.12;;;1.61;100.00
46241;BME280;31961;52.416;-0.732;2023-02-19T22:52:58;101624.45;;;2.19;100.00
46241;BME280;31961;52.416;-0.732;2023-02-19T22:55:25;101621.00;;;2.32;100.00
46241;BME280;31961;52.416;-0.732;2023-02-19T22:57:52;101616.70;;;2.51;100.00
46241;BME280;31961;52.416;-0.732;2023-02-19T23:00:20;101616.52;;;1.99;100.00
46241;BME280;31961;52.416;-0.732;2023-02-19T23:02:48;101615.31;;;2.17;100.00
46241;BME280;31961;52.416;-0.732;2023-02-19T23:05:15;101609.86;;;2.12;100.00
46241;BME280;31961;52.416;-0.732;2023-02-19T23:07:43;101606.31;;;2.29;100.00
46241;BME280;31961;52.416;-0.732;2023-02-19T23:10:11;101603.16;;;2.16;100.00
46241;BME280;31961;52.416;-0.732;2023-02-19T23:12:39;101602.85;;;2.41;100.00
46241;BME280;31961;52.416;-0.732;2023-02-19T23:15:08;101599.16;;;2.43;100.00
46241;BME280;31961;52.416;-0.732;2023-02-19T23:17:36;101602.12;;;1.79;100.00
46241;BME280;31961;52.416;-0.732;2023-02-19T23:20:03;101600.15;;;1.70;100.00
46241;BME280;31961;52.416;-0.732;2023-02-19T23:22:31;101598.43;;;1.72;100.00
46241;BME280;31961;52.416;-0.732;2023-02-19T23:24:58;101595.61;;;2.35;100.00
46241;BME280;31961;52.416;-0.732;2023-02-19T23:27:26;101593.99;;;2.36;100.00
46241;BME280;31961;52.416;-0.732;2023-02-19T23:29:53;101587.57;;;2.09;100.00
46241;BME280;31961;52.416;-0.732;2023-02-19T23:32:20;101585.02;;;2.53;100.00
46241;BME280;31961;52.416;-0.732;2023-02-19T23:34:48;101579.83;;;2.36;100.00
46241;BME280;31961;52.416;-0.732;2023-02-19T23:37:17;101579.87;;;2.87;100.00
46241;BME280;31961;52.416;-0.732;2023-02-19T23:39:44;101571.25;;;2.58;100.00
46241;BME280;31961;52.416;-0.732;2023-02-19T23:42:15;101580.06;;;2.15;100.00
46241;BME280;31961;52.416;-0.732;2023-02-19T23:44:44;101576.82;;;2.58;100.00
46241;BME280;31961;52.416;-0.732;2023-02-19T23:47:12;101569.58;;;2.35;100.00
46241;BME280;31961;52.416;-0.732;2023-02-19T23:49:40;101567.35;;;2.13;100.00
46241;BME280;31961;52.416;-0.732;2023-02-19T23:52:07;101568.50;;;2.28;100.00
46241;BME280;31961;52.416;-0.732;2023-02-19T23:54:34;101555.63;;;2.63;100.00
46241;BME280;31961;52.416;-0.732;2023-02-19T23:57:01;101550.75;;;2.99;100.00
46241;BME280;31961;52.416;-0.732;2023-02-19T23:59:29;101546.87;;;2.60;100.00
